createdAt,value
2023-02-01T00:01:38.425Z,32.10
2023-02-01T00:11:46.856Z,31.50
2023-02-01T00:21:56.712Z,32.30
2023-02-01T00:32:05.196Z,32.70
2023-02-01T00:42:12.002Z,33.60
2023-02-01T00:52:20.436Z,34.90
2023-02-01T01:02:30.996Z,34.90
2023-02-01T01:12:39.851Z,34.70
2023-02-01T01:22:46.797Z,33.70
2023-02-01T01:32:56.415Z,33.40
2023-02-01T01:43:03.281Z,33.20
2023-02-01T01:53:15.681Z,32.60
2023-02-01T02:03:25.239Z,33.50
2023-02-01T02:13:40.673Z,34.30
2023-02-01T02:24:14.651Z,34.20
2023-02-01T02:34:29.026Z,34.80
2023-02-01T02:45:44.464Z,35.40
2023-02-01T02:56:45.039Z,37.20
2023-02-01T03:06:59.443Z,37.90
2023-02-01T03:17:19.547Z,36.80
2023-02-01T03:27:35.809Z,36.30
2023-02-01T03:37:54.158Z,36.20
2023-02-01T03:48:12.188Z,36.10
2023-02-01T03:58:30.949Z,36.00
2023-02-01T04:08:42.348Z,35.80
2023-02-01T04:19:00.684Z,35.70
2023-02-01T04:29:12.406Z,35.80
2023-02-01T04:39:30.154Z,35.80
2023-02-01T04:49:43.904Z,35.80
2023-02-01T05:00:01.348Z,35.90
2023-02-01T05:10:09.239Z,36.20
2023-02-01T05:20:18.514Z,36.40
2023-02-01T05:30:26.711Z,36.60
2023-02-01T05:40:35.153Z,36.60
2023-02-01T05:50:52.390Z,36.60
2023-02-01T06:01:02.850Z,37.10
2023-02-01T06:11:17.371Z,36.80
2023-02-01T06:21:35.326Z,37.10
2023-02-01T06:31:42.432Z,37.20
2023-02-01T06:41:52.989Z,37.30
2023-02-01T06:52:02.189Z,37.50
2023-02-01T07:02:12.610Z,36.20
2023-02-01T07:12:20.377Z,36.30
2023-02-01T07:22:32.151Z,36.30
2023-02-01T07:32:39.105Z,36.20
2023-02-01T07:42:47.542Z,35.90
2023-02-01T07:52:59.849Z,35.80
2023-02-01T08:03:19.812Z,35.70
2023-02-01T08:13:32.675Z,35.60
2023-02-01T08:23:55.374Z,35.70
2023-02-01T08:34:07.115Z,36.20
2023-02-01T08:44:23.794Z,35.40
2023-02-01T08:54:37.996Z,35.40
2023-02-01T09:04:55.046Z,35.40
2023-02-01T09:15:09.391Z,35.30
2023-02-01T09:25:27.826Z,35.30
2023-02-01T09:35:40.397Z,35.30
2023-02-01T09:46:06.481Z,35.10
2023-02-01T09:56:33.331Z,35.20
2023-02-01T10:07:01.653Z,35.20
2023-02-01T10:17:23.721Z,35.20
2023-02-01T10:27:44.087Z,35.20
2023-02-01T10:37:54.336Z,35.20
2023-02-01T10:48:31.503Z,35.20
2023-02-01T10:58:50.872Z,35.10
2023-02-01T11:09:20.952Z,35.20
2023-02-01T11:19:31.201Z,35.10
2023-02-01T11:29:51.354Z,35.00
2023-02-01T11:50:42.583Z,35.10
2023-02-01T12:01:12.250Z,35.20
2023-02-01T12:11:47.083Z,35.10
2023-02-01T12:22:22.912Z,35.10
2023-02-01T12:32:56.424Z,34.90
2023-02-01T12:43:19.446Z,34.90
2023-02-01T12:53:55.335Z,34.90
2023-02-01T13:04:22.681Z,34.90
2023-02-01T13:14:46.112Z,35.00
2023-02-01T13:25:03.804Z,34.90
2023-02-01T13:36:01.112Z,34.90
2023-02-01T13:46:32.495Z,34.90
2023-02-01T13:57:34.222Z,34.90
2023-02-01T14:08:17.551Z,34.90
2023-02-01T14:19:03.941Z,34.90
2023-02-01T14:29:38.326Z,34.90
2023-02-01T14:40:02.473Z,35.00
2023-02-01T14:50:46.465Z,34.90
2023-02-01T15:01:06.735Z,34.90
2023-02-01T15:11:22.475Z,34.80
2023-02-01T15:21:35.943Z,34.90
2023-02-01T15:31:44.907Z,35.60
2023-02-01T15:42:03.173Z,32.10
2023-02-01T15:52:30.491Z,33.30
2023-02-01T16:02:49.187Z,33.60
2023-02-01T16:13:00.509Z,32.60
2023-02-01T16:23:12.294Z,32.50
2023-02-01T16:33:23.779Z,32.50
2023-02-01T16:43:32.683Z,32.00
2023-02-01T16:53:53.471Z,32.20
2023-02-01T17:04:04.171Z,31.30
2023-02-01T17:14:22.932Z,30.90
2023-02-01T17:24:47.638Z,31.70
2023-02-01T17:34:59.276Z,32.40
2023-02-01T17:45:23.681Z,33.40
2023-02-01T17:55:30.979Z,33.70
2023-02-01T18:06:01.252Z,33.50
2023-02-01T18:16:08.833Z,33.50
2023-02-01T18:26:26.129Z,34.20
2023-02-01T18:36:34.088Z,34.30
2023-02-01T18:46:44.015Z,34.40
2023-02-01T18:56:51.639Z,34.30
2023-02-01T19:07:03.564Z,34.30
2023-02-01T19:17:13.529Z,34.30
2023-02-01T19:27:22.401Z,34.00
2023-02-01T19:37:29.167Z,33.70
2023-02-01T19:47:38.126Z,33.40
2023-02-01T19:57:45.329Z,31.70
2023-02-01T20:08:17.248Z,32.80
2023-02-01T20:18:36.749Z,32.60
2023-02-01T20:28:52.715Z,32.30
2023-02-01T20:39:01.584Z,33.00
2023-02-01T20:49:10.595Z,33.30
2023-02-01T20:59:18.018Z,32.70
2023-02-01T21:09:26.464Z,33.60
2023-02-01T21:19:43.623Z,33.80
2023-02-01T21:29:51.965Z,34.30
2023-02-01T21:39:58.730Z,34.50
2023-02-01T21:50:08.568Z,34.50
2023-02-01T22:00:16.651Z,33.90
2023-02-01T22:10:25.138Z,32.60
2023-02-01T22:20:31.835Z,33.20
2023-02-01T22:30:40.277Z,33.30
2023-02-01T22:40:47.221Z,32.80
2023-02-01T22:51:00.417Z,33.00
2023-02-01T23:01:10.859Z,33.70
2023-02-01T23:11:19.194Z,34.40
2023-02-01T23:21:26.586Z,33.50
2023-02-01T23:31:37.310Z,33.80
2023-02-01T23:41:44.061Z,34.10
2023-02-01T23:51:54.155Z,34.10
